Лесково

Карта отелей и гостиниц, располагающихся рядом с аэропортом Лесково :

Лесково Воронежская область 50° 21' 2.2788" N, 40° 44' 20.6412" E
Код аэродрома ИКАО
ZA78
Код аэродрома RU
ЗА78
Координаты
N50.35063° E040.73907°
Превышение над уровнем моря
200
Основная полоса
11/29
Курс магнитный
106/286
Длина основной ВПП
404
Ширина основной ВПП
18
Покрытие основной ВПП
Твёрдое (асфальт)
Освещение ВПП
Нет
Тип: 
Аэродром
Класс аэродрома: 
Принадлежность: 
ГА
Статус: 
Недействующий
Сайт: 
E-mail аэродрома: 
Страна: 
Россия
Регион: 
Воронежская область
Город: 
Дополнительная информация: 
Площадка АХР.

Найти трансфер

С помощью этой формы Вы можете найти трансфер из аэропорта Лесково в город, аэропорт или вокзал:

Карта места

Javascript is required to view this map.

Погода в аэропортах:

Авиационная погода в Череповце

Регион: 
Погода METAR: 
ULWC 281300Z 25005G10MPS 9999 -SHSNRA BKN006 OVC013CB 01/M00 Q0998 R21/690239 NOSIG RMK QFE738/0985
Время наблюдения
2021-11-28T13:00:00Z
Температура C
1.0
Точка росы
0.0
Направление ветра
250
Скорость ветра (узлы)
10
Метео видимость
6.21
Явления погоды
-SHSN -SHRA
Условия полета
IFR
Аэропорт подробнее: 

Авиационная погода в Воронеже

Регион: 
Погода METAR: 
UUOO 281300Z 13002MPS 0250 0200NE R12/0550N FG VV000 06/06 Q1009 R12/290155 NOSIG RMK QBB020 QFE743
Время наблюдения
2021-11-28T13:00:00Z
Температура C
6.0
Точка росы
6.0
Направление ветра
130
Скорость ветра (узлы)
4
Метео видимость
0.16
Явления погоды
FG
Условия полета
LIFR
Аэропорт подробнее: 

Авиационная погода в Ужгороде

Регион: 
Погода METAR: 
UKLU 261930Z 10004MPS 080V150 6000 -RA OVC016 06/06 Q0993 TEMPO 2100 -RA BR BKN005 BKN015
Время наблюдения
2021-11-26T19:30:00Z
Температура C
6.0
Точка росы
6.0
Направление ветра
100
Скорость ветра (узлы)
8
Метео видимость
3.73
Явления погоды
-RA
Условия полета
MVFR
Аэропорт подробнее: 

Авиационная погода в Нижнекамске

Регион: 
Погода METAR: 
UWKE 281300Z 23006G11MPS 5000 -SN BLSN BKN009 OVC026 M03/M04 Q1014 R21/450545 NOSIG RMK QFE744/0992
Время наблюдения
2021-11-28T13:00:00Z
Температура C
-3.0
Точка росы
-4.0
Направление ветра
230
Скорость ветра (узлы)
12
Метео видимость
3.11
Явления погоды
-SN BLSN
Условия полета
IFR
Аэропорт подробнее: